CYWG/YWG METAR and TAF weather

Enter ICAO airport designator
Station Type Date Time Source
CYWG METAR 2019/04/25 21:00 UTC NOAA

CYWG 252100Z 34026G32KT 15SM SCT030 BKN120 10/00 A2988 RMK CU4AC2 SLP127


Station Type Date Time Source
CYWG Decoded METAR 2019/04/25 21:00 UTC NOAA

Winnipeg Int. Airportman., Canada (CYWG) 49-54N 097-14W 239M
Apr 25, 2019 - 05:00 PM EDT / 2019.04.25 2100 UTC
Wind: from the NNW (340 degrees) at 30 MPH (26 KT) gusting to 37 MPH (32 KT):0
Visibility: 15 mile(s):0
Sky conditions: mostly cloudy
Temperature: 50 F (10 C)
Dew Point: 32 F (0 C)
Relative Humidity: 49%
Pressure (altimeter): 29.88 in. Hg (1011 hPa)
ob: CYWG 252100Z 34026G32KT 15SM SCT030 BKN120 10/00 A2988 RMK CU4AC2 SLP127
cycle: 21

Station Type Date Time Source
CYWG TAF 2019/04/25 18:42 UTC NOAA

TAF TAF CYWG 251738Z 2518/2618 30025G35KT P6SM SCT060
FM251900 31025G35KT P6SM VCSH SCT030 BKN060
TEMPO 2519/2601 P6SM -SHRA BKN030 OVC040
BECMG 2523/2601 31020G30KT
FM260300 35015G25KT P6SM SCT050
FM260500 35012KT P6SM SCT020 BKN050
TEMPO 2605/2610 P6SM -SHRA BKN015 OVC040
BECMG 2606/2608 30008KT
FM261000 29008KT P6SM FEW020
BECMG 2615/2617 33015KT
RMK NXT FCST BY 260000Z

Example: see airport list